TAF Text Data
IDs:
Format:
Raw Decoded Include METAR

Data at: 1125 UTC 21 Jan 2020

KCUB 210913Z 2109/2206 VRB04KT P6SM FEW060 SCT100
  FM211300 01010G18KT P6SM FEW060 SCT100
  FM220000 01006KT P6SM SKC